createdAt,value
2023-05-12T00:01:02.934Z,100530.00
2023-05-12T00:03:29.916Z,100534.26
2023-05-12T00:05:56.807Z,100528.65
2023-05-12T00:08:23.606Z,100530.11
2023-05-12T00:10:51.889Z,100534.27
2023-05-12T00:13:18.910Z,100530.11
2023-05-12T00:15:45.723Z,100528.78
2023-05-12T00:18:12.692Z,100531.06
2023-05-12T00:20:39.601Z,100531.36
2023-05-12T00:23:06.412Z,100528.27
2023-05-12T00:25:33.875Z,100531.14
2023-05-12T00:28:00.687Z,100529.88
2023-05-12T00:30:27.871Z,100535.54
2023-05-12T00:32:55.191Z,100534.58
2023-05-12T00:35:22.124Z,100539.40
2023-05-12T00:37:48.885Z,100540.53
2023-05-12T00:40:15.828Z,100543.15
2023-05-12T00:42:43.659Z,100547.57
2023-05-12T00:45:10.897Z,100549.38
2023-05-12T00:47:37.739Z,100546.81
2023-05-12T00:50:04.938Z,100545.80
2023-05-12T00:52:31.842Z,100546.46
2023-05-12T00:54:59.381Z,100548.84
2023-05-12T00:57:27.957Z,100551.08
2023-05-12T00:59:56.011Z,100555.01
2023-05-12T01:02:23.178Z,100556.48
2023-05-12T01:04:51.589Z,100553.73
2023-05-12T01:07:21.036Z,100553.48
2023-05-12T01:09:48.338Z,100554.52
2023-05-12T01:12:15.511Z,100552.91
2023-05-12T01:14:43.045Z,100555.61
2023-05-12T01:17:13.317Z,100554.96
2023-05-12T01:19:49.396Z,100556.73
2023-05-12T01:22:16.968Z,100557.71
2023-05-12T01:24:52.897Z,100558.34
2023-05-12T01:27:19.824Z,100558.77
2023-05-12T01:29:47.193Z,100554.38
2023-05-12T01:32:15.899Z,100556.96
2023-05-12T01:34:43.247Z,100557.83
2023-05-12T01:37:10.694Z,100560.48
2023-05-12T01:39:37.833Z,100557.52
2023-05-12T01:42:05.665Z,100556.52
2023-05-12T01:44:32.657Z,100556.30
2023-05-12T01:46:59.490Z,100553.89
2023-05-12T01:49:26.844Z,100554.33
2023-05-12T01:51:53.604Z,100550.02
2023-05-12T01:54:25.687Z,100556.66
2023-05-12T01:56:52.473Z,100556.38
2023-05-12T01:59:19.303Z,100554.52
2023-05-12T02:01:46.256Z,100559.15
2023-05-12T02:04:14.392Z,100557.61
2023-05-12T02:06:42.469Z,100557.02
2023-05-12T02:09:09.216Z,100559.83
2023-05-12T02:11:36.819Z,100562.69
2023-05-12T02:14:04.040Z,100564.84
2023-05-12T02:16:30.989Z,100563.23
2023-05-12T02:18:57.868Z,100564.77
2023-05-12T02:21:24.739Z,100564.39
2023-05-12T02:23:51.628Z,100559.98
2023-05-12T02:26:19.595Z,100562.46
2023-05-12T02:28:46.448Z,100560.88
2023-05-12T02:31:13.249Z,100560.66
2023-05-12T02:33:40.080Z,100563.11
2023-05-12T02:36:07.316Z,100563.67
2023-05-12T02:38:34.166Z,100561.88
2023-05-12T02:41:01.722Z,100559.40
2023-05-12T02:43:28.678Z,100564.77
2023-05-12T02:45:55.510Z,100564.95
2023-05-12T02:48:22.400Z,100564.13
2023-05-12T02:50:49.194Z,100565.36
2023-05-12T02:53:16.016Z,100564.79
2023-05-12T02:55:42.959Z,100566.02
2023-05-12T02:58:10.442Z,100570.36
2023-05-12T03:00:37.177Z,100569.27
2023-05-12T03:03:04.220Z,100570.86
2023-05-12T03:05:31.339Z,100573.42
2023-05-12T03:07:59.088Z,100572.55
2023-05-12T03:10:25.911Z,100572.02
2023-05-12T03:12:52.968Z,100573.73
2023-05-12T03:15:20.293Z,100573.07
2023-05-12T03:17:47.224Z,100573.94
2023-05-12T03:20:14.379Z,100577.66
2023-05-12T03:22:43.237Z,100582.43
2023-05-12T03:25:10.883Z,100584.25
2023-05-12T03:27:37.792Z,100584.09
2023-05-12T03:30:07.984Z,100584.30
2023-05-12T03:32:39.207Z,100586.98
2023-05-12T03:35:08.468Z,100582.88
2023-05-12T03:37:35.381Z,100586.98
2023-05-12T03:40:02.303Z,100588.52
2023-05-12T03:42:30.316Z,100589.30
2023-05-12T03:44:57.063Z,100586.91
2023-05-12T03:47:24.057Z,100591.13
2023-05-12T03:49:51.129Z,100591.77
2023-05-12T03:52:17.921Z,100596.88
2023-05-12T03:54:45.100Z,100592.76
2023-05-12T03:57:12.697Z,100601.90
2023-05-12T03:59:39.473Z,100597.67
2023-05-12T04:02:07.850Z,100599.77
2023-05-12T04:04:34.780Z,100597.47
2023-05-12T04:07:02.091Z,100598.00
2023-05-12T04:09:31.441Z,100597.64
2023-05-12T04:11:58.954Z,100597.13
2023-05-12T04:14:35.206Z,100597.72
2023-05-12T04:17:06.282Z,100598.73
2023-05-12T04:19:33.510Z,100598.60
2023-05-12T04:22:00.356Z,100600.59
2023-05-12T04:24:28.013Z,100600.73
2023-05-12T04:26:54.827Z,100600.90
2023-05-12T04:29:21.708Z,100599.60
2023-05-12T04:31:48.732Z,100601.22
2023-05-12T04:34:15.633Z,100601.29
2023-05-12T04:36:42.399Z,100605.17
2023-05-12T04:39:09.706Z,100606.19
2023-05-12T04:41:36.874Z,100608.10
2023-05-12T04:44:03.746Z,100609.33
2023-05-12T04:46:30.988Z,100610.84
2023-05-12T04:48:57.862Z,100612.04
2023-05-12T04:51:24.871Z,100610.69
2023-05-12T04:53:51.790Z,100611.20
2023-05-12T04:56:19.213Z,100610.08
2023-05-12T04:58:46.471Z,100610.55
2023-05-12T05:01:13.800Z,100610.60
2023-05-12T05:03:41.254Z,100608.12
2023-05-12T05:06:08.506Z,100607.32
2023-05-12T05:08:35.452Z,100604.01
2023-05-12T05:11:03.300Z,100608.38
2023-05-12T05:13:31.379Z,100609.21
2023-05-12T05:15:58.291Z,100610.38
2023-05-12T05:18:25.724Z,100613.70
2023-05-12T05:23:24.602Z,100614.54
2023-05-12T05:25:51.617Z,100615.90
2023-05-12T05:28:18.405Z,100620.06
2023-05-12T05:30:45.325Z,100620.45
2023-05-12T05:33:13.364Z,100615.18
2023-05-12T05:35:40.350Z,100616.82
2023-05-12T05:38:07.154Z,100621.13
2023-05-12T05:40:44.990Z,100617.52
2023-05-12T05:43:18.801Z,100621.41
2023-05-12T05:45:45.638Z,100621.55
2023-05-12T05:48:12.737Z,100624.11
2023-05-12T05:50:39.619Z,100623.20
2023-05-12T05:53:06.790Z,100624.73
2023-05-12T05:55:33.767Z,100625.06
2023-05-12T05:58:01.141Z,100624.23
2023-05-12T06:00:28.054Z,100623.48
2023-05-12T06:02:55.730Z,100626.48
2023-05-12T06:05:22.953Z,100626.39
2023-05-12T06:07:49.978Z,100629.13
2023-05-12T06:10:16.817Z,100627.74
2023-05-12T06:12:45.198Z,100630.44
2023-05-12T06:15:12.250Z,100624.47
2023-05-12T06:17:39.588Z,100624.66
2023-05-12T06:20:07.468Z,100623.95
2023-05-12T06:22:34.856Z,100628.13
2023-05-12T06:25:02.058Z,100630.41
2023-05-12T06:27:28.809Z,100629.48
2023-05-12T06:29:55.793Z,100628.28
2023-05-12T06:32:22.576Z,100631.36
2023-05-12T06:34:49.782Z,100631.84
2023-05-12T06:37:16.978Z,100634.75
2023-05-12T06:39:43.823Z,100637.36
2023-05-12T06:42:11.681Z,100636.66
2023-05-12T06:44:42.505Z,100632.30
2023-05-12T06:47:09.720Z,100631.84
2023-05-12T06:49:38.108Z,100630.38
2023-05-12T06:52:06.751Z,100628.15
2023-05-12T06:54:33.806Z,100627.41
2023-05-12T06:57:00.854Z,100628.48
2023-05-12T06:59:27.678Z,100631.38
2023-05-12T07:01:54.423Z,100629.31
2023-05-12T07:04:21.756Z,100624.58
2023-05-12T07:06:48.528Z,100628.71
2023-05-12T07:09:15.320Z,100631.30
2023-05-12T07:11:42.186Z,100629.25
2023-05-12T07:14:08.931Z,100628.33
2023-05-12T07:16:36.413Z,100630.84
2023-05-12T07:19:03.332Z,100631.27
2023-05-12T07:21:30.757Z,100629.64
2023-05-12T07:23:57.674Z,100629.49
2023-05-12T07:26:24.474Z,100632.05
2023-05-12T07:28:51.378Z,100632.39
2023-05-12T07:31:18.203Z,100632.48
2023-05-12T07:33:45.012Z,100634.67
2023-05-12T07:36:11.784Z,100635.15
2023-05-12T07:38:38.560Z,100633.67
2023-05-12T07:41:05.376Z,100636.46
2023-05-12T07:43:32.127Z,100637.35
2023-05-12T07:46:01.141Z,100635.58
2023-05-12T07:48:28.030Z,100635.36
2023-05-12T07:50:55.085Z,100632.09
2023-05-12T07:53:21.882Z,100634.25
2023-05-12T07:55:48.712Z,100636.80
2023-05-12T07:58:15.631Z,100633.27
2023-05-12T08:00:42.568Z,100630.77
2023-05-12T08:03:09.458Z,100626.77
2023-05-12T08:05:36.625Z,100627.73
2023-05-12T08:08:03.498Z,100623.11
2023-05-12T08:10:32.677Z,100621.94
2023-05-12T08:12:59.414Z,100624.08
2023-05-12T08:15:26.257Z,100625.15
2023-05-12T08:17:53.104Z,100625.81
2023-05-12T08:20:20.349Z,100623.58
2023-05-12T08:22:47.943Z,100625.16
2023-05-12T08:25:14.909Z,100625.96
2023-05-12T08:27:42.032Z,100627.14
2023-05-12T08:30:09.823Z,100626.75
2023-05-12T08:32:36.889Z,100619.20
2023-05-12T08:35:03.928Z,100620.67
2023-05-12T08:37:33.029Z,100618.29
2023-05-12T08:40:01.306Z,100618.48
2023-05-12T08:42:37.366Z,100615.57
2023-05-12T08:45:04.526Z,100614.14
2023-05-12T08:47:33.285Z,100608.95
2023-05-12T08:50:02.172Z,100605.99
2023-05-12T08:52:33.438Z,100602.45
2023-05-12T08:55:01.020Z,100603.80
2023-05-12T08:57:29.858Z,100602.16
2023-05-12T08:59:57.509Z,100597.75
2023-05-12T09:02:24.688Z,100589.77
2023-05-12T09:04:52.200Z,100596.23
2023-05-12T09:07:19.805Z,100598.30
2023-05-12T09:09:48.809Z,100598.90
2023-05-12T09:12:17.011Z,100602.33
2023-05-12T09:14:45.217Z,100595.41
2023-05-12T09:17:12.764Z,100597.30
2023-05-12T09:19:39.590Z,100601.70
2023-05-12T09:22:06.400Z,100597.31
2023-05-12T09:24:40.047Z,100594.77
2023-05-12T09:27:07.316Z,100590.78
2023-05-12T09:29:37.458Z,100584.68
2023-05-12T09:32:12.162Z,100578.70
2023-05-12T09:34:41.602Z,100578.38
2023-05-12T09:37:08.651Z,100580.70
2023-05-12T09:39:36.505Z,100580.98
2023-05-12T09:42:03.456Z,100581.35
2023-05-12T09:44:31.675Z,100578.67
2023-05-12T09:47:07.169Z,100570.52
2023-05-12T09:49:34.153Z,100563.94
2023-05-12T09:52:01.314Z,100560.33
2023-05-12T09:54:30.642Z,100560.81
2023-05-12T09:57:02.496Z,100556.92
2023-05-12T09:59:33.964Z,100559.06
2023-05-12T10:02:01.681Z,100556.77
2023-05-12T10:04:39.521Z,100563.02
2023-05-12T10:07:08.567Z,100559.75
2023-05-12T10:09:35.350Z,100561.48
2023-05-12T10:12:03.172Z,100560.33
2023-05-12T10:14:29.994Z,100556.33
2023-05-12T10:16:56.859Z,100554.64
2023-05-12T10:19:23.754Z,100550.77
2023-05-12T10:21:50.536Z,100550.59
2023-05-12T10:24:17.510Z,100550.00
2023-05-12T10:26:44.854Z,100546.23
2023-05-12T10:29:12.524Z,100542.14
2023-05-12T10:31:39.332Z,100536.83
2023-05-12T10:34:06.931Z,100535.25
2023-05-12T10:36:47.517Z,100533.54
2023-05-12T10:39:15.674Z,100536.84
2023-05-12T10:41:42.913Z,100539.08
2023-05-12T10:44:12.560Z,100538.43
2023-05-12T10:46:39.373Z,100533.62
2023-05-12T10:49:06.099Z,100530.14
2023-05-12T10:51:34.478Z,100530.48
2023-05-12T10:54:03.943Z,100533.91
2023-05-12T10:56:32.005Z,100532.76
2023-05-12T10:59:13.108Z,100530.52
2023-05-12T11:01:41.672Z,100529.25
2023-05-12T11:04:16.864Z,100531.52
2023-05-12T11:06:45.042Z,100527.09
2023-05-12T11:09:13.291Z,100526.61
2023-05-12T11:11:40.685Z,100518.05
2023-05-12T11:14:08.021Z,100514.56
2023-05-12T11:16:34.845Z,100512.38
2023-05-12T11:22:23.742Z,100514.27
2023-05-12T11:24:52.172Z,100518.23
2023-05-12T11:27:19.983Z,100511.50
2023-05-12T11:29:58.572Z,100516.66
2023-05-12T11:32:25.317Z,100515.23
2023-05-12T11:34:52.384Z,100509.08
2023-05-12T11:37:20.422Z,100505.44
2023-05-12T11:39:47.464Z,100504.63
2023-05-12T11:42:15.117Z,100502.77
2023-05-12T11:44:47.805Z,100503.96
2023-05-12T11:47:15.536Z,100500.77
2023-05-12T11:49:49.996Z,100504.54
2023-05-12T11:52:17.839Z,100500.53
2023-05-12T11:54:50.185Z,100497.99
2023-05-12T11:57:32.790Z,100498.66
2023-05-12T12:00:00.900Z,100503.29
2023-05-12T12:02:28.229Z,100502.50
2023-05-12T12:04:55.353Z,100503.44
2023-05-12T12:07:32.310Z,100499.33
2023-05-12T12:10:10.130Z,100500.39
2023-05-12T12:12:38.415Z,100495.95
2023-05-12T12:15:05.926Z,100494.29
2023-05-12T12:17:32.637Z,100494.16
2023-05-12T12:19:59.506Z,100493.61
2023-05-12T12:22:26.440Z,100492.47
2023-05-12T12:24:53.171Z,100489.90
2023-05-12T12:27:19.779Z,100487.08
2023-05-12T12:29:46.824Z,100483.16
2023-05-12T12:32:13.484Z,100480.47
2023-05-12T12:34:41.166Z,100479.15
2023-05-12T12:37:07.750Z,100480.17
2023-05-12T12:39:35.419Z,100474.71
2023-05-12T12:42:02.609Z,100467.28
2023-05-12T12:44:29.384Z,100467.20
2023-05-12T12:46:56.026Z,100463.91
2023-05-12T12:49:24.078Z,100464.44
2023-05-12T12:51:51.010Z,100463.21
2023-05-12T12:54:17.951Z,100460.81
2023-05-12T12:56:44.586Z,100462.15
2023-05-12T12:59:11.343Z,100462.23
2023-05-12T13:01:38.107Z,100457.16
2023-05-12T13:04:05.248Z,100457.70
2023-05-12T13:06:32.020Z,100459.49
2023-05-12T13:08:59.419Z,100456.48
2023-05-12T13:11:26.066Z,100457.83
2023-05-12T13:13:52.877Z,100455.03
2023-05-12T13:16:19.701Z,100460.90
2023-05-12T13:18:46.818Z,100456.44
2023-05-12T13:21:13.465Z,100459.66
2023-05-12T13:23:42.253Z,100459.86
2023-05-12T13:26:08.921Z,100460.30
2023-05-12T13:28:36.881Z,100451.77
2023-05-12T13:31:05.643Z,100452.96
2023-05-12T13:33:33.029Z,100450.45
2023-05-12T13:35:59.951Z,100448.77
2023-05-12T13:38:26.601Z,100454.46
2023-05-12T13:40:54.425Z,100453.63
2023-05-12T13:43:21.568Z,100450.05
2023-05-12T13:45:48.259Z,100447.88
2023-05-12T13:48:15.228Z,100445.11
2023-05-12T13:50:44.589Z,100439.41
2023-05-12T13:53:12.390Z,100438.16
2023-05-12T13:55:48.599Z,100438.90
2023-05-12T13:58:15.463Z,100438.14
2023-05-12T14:00:42.670Z,100438.91
2023-05-12T14:03:09.465Z,100438.23
2023-05-12T14:05:37.541Z,100437.45
2023-05-12T14:08:04.461Z,100435.48
2023-05-12T14:10:33.097Z,100435.42
2023-05-12T14:12:59.878Z,100431.92
2023-05-12T14:15:39.947Z,100432.44
2023-05-12T14:18:14.272Z,100430.48
2023-05-12T14:20:41.480Z,100430.85
2023-05-12T14:23:07.960Z,100432.88
2023-05-12T14:25:34.784Z,100431.48
2023-05-12T14:28:02.012Z,100433.23
2023-05-12T14:30:29.543Z,100427.89
2023-05-12T14:32:56.766Z,100429.66
2023-05-12T14:35:26.932Z,100429.31
2023-05-12T14:37:54.397Z,100428.00
2023-05-12T14:40:21.133Z,100423.55
2023-05-12T14:42:47.988Z,100423.52
2023-05-12T14:45:15.055Z,100424.60
2023-05-12T14:47:42.125Z,100428.91
2023-05-12T14:50:09.544Z,100426.58
2023-05-12T14:52:39.294Z,100424.95
2023-05-12T14:55:11.791Z,100418.59
2023-05-12T14:57:40.040Z,100425.32
2023-05-12T15:00:10.165Z,100425.54
2023-05-12T15:02:38.404Z,100425.28
2023-05-12T15:05:06.761Z,100427.16
2023-05-12T15:07:33.760Z,100422.82
2023-05-12T15:10:00.404Z,100424.15
2023-05-12T15:12:27.418Z,100423.15
2023-05-12T15:14:56.386Z,100421.09
2023-05-12T15:17:23.204Z,100419.35
2023-05-12T15:19:49.792Z,100416.91
2023-05-12T15:22:16.330Z,100417.45
2023-05-12T15:24:43.127Z,100413.42
2023-05-12T15:27:09.650Z,100415.50
2023-05-12T15:29:38.157Z,100409.01
2023-05-12T15:32:05.730Z,100417.14
2023-05-12T15:34:34.431Z,100420.22
2023-05-12T15:37:01.300Z,100417.88
2023-05-12T15:39:28.172Z,100415.22
2023-05-12T15:41:54.773Z,100413.28
2023-05-12T15:44:21.435Z,100413.52
2023-05-12T15:46:48.107Z,100414.15
2023-05-12T15:49:14.813Z,100416.06
2023-05-12T15:51:41.926Z,100417.04
2023-05-12T15:54:09.527Z,100415.86
2023-05-12T15:56:36.854Z,100419.00
2023-05-12T15:59:04.608Z,100420.40
2023-05-12T16:01:31.602Z,100418.80
2023-05-12T16:03:58.946Z,100418.63
2023-05-12T16:06:25.679Z,100421.70
2023-05-12T16:08:52.563Z,100416.17
2023-05-12T16:11:19.174Z,100415.15
2023-05-12T16:13:45.798Z,100411.63
2023-05-12T16:16:12.685Z,100413.30
2023-05-12T16:18:39.629Z,100414.58
2023-05-12T16:21:06.624Z,100416.52
2023-05-12T16:23:33.282Z,100413.80
2023-05-12T16:25:59.887Z,100412.02
2023-05-12T16:28:26.637Z,100418.32
2023-05-12T16:30:53.276Z,100417.55
2023-05-12T16:33:19.827Z,100416.83
2023-05-12T16:35:46.601Z,100420.41
2023-05-12T16:38:13.281Z,100422.09
2023-05-12T16:40:39.910Z,100423.08
2023-05-12T16:43:06.481Z,100427.16
2023-05-12T16:45:33.415Z,100425.45
2023-05-12T16:48:01.117Z,100426.86
2023-05-12T16:50:27.758Z,100427.13
2023-05-12T16:52:54.252Z,100431.84
2023-05-12T16:55:21.261Z,100436.36
2023-05-12T16:57:48.491Z,100441.13
2023-05-12T17:00:15.786Z,100438.78
2023-05-12T17:02:42.935Z,100441.36
2023-05-12T17:05:09.549Z,100440.41
2023-05-12T17:07:37.478Z,100442.16
2023-05-12T17:10:04.523Z,100440.70
2023-05-12T17:12:31.766Z,100451.06
2023-05-12T17:15:06.810Z,100449.20
2023-05-12T17:17:35.248Z,100449.44
2023-05-12T17:20:02.388Z,100453.10
2023-05-12T17:22:31.484Z,100451.65
2023-05-12T17:24:58.360Z,100455.02
2023-05-12T17:27:25.906Z,100456.60
2023-05-12T17:29:52.987Z,100461.45
2023-05-12T17:32:20.024Z,100462.30
2023-05-12T17:34:49.631Z,100461.39
2023-05-12T17:37:16.921Z,100464.17
2023-05-12T17:39:43.870Z,100465.79
2023-05-12T17:42:10.505Z,100468.50
2023-05-12T17:44:37.332Z,100465.42
2023-05-12T17:47:04.400Z,100471.70
2023-05-12T17:49:31.145Z,100470.71
2023-05-12T17:51:57.917Z,100473.20
2023-05-12T17:54:27.005Z,100471.08
2023-05-12T17:56:53.875Z,100472.43
2023-05-12T17:59:20.458Z,100478.20
2023-05-12T18:01:47.362Z,100481.23
2023-05-12T18:04:14.733Z,100479.61
2023-05-12T18:06:41.387Z,100478.98
2023-05-12T18:09:08.120Z,100478.25
2023-05-12T18:11:34.961Z,100479.56
2023-05-12T18:14:05.041Z,100480.83
2023-05-12T18:16:32.771Z,100481.27
2023-05-12T18:19:01.856Z,100487.63
2023-05-12T18:21:28.714Z,100486.34
2023-05-12T18:23:56.063Z,100489.36
2023-05-12T18:26:23.579Z,100495.88
2023-05-12T18:28:50.327Z,100491.14
2023-05-12T18:31:19.194Z,100489.80
2023-05-12T18:33:47.864Z,100497.56
2023-05-12T18:36:15.739Z,100497.32
2023-05-12T18:38:42.609Z,100501.27
2023-05-12T18:41:10.741Z,100503.94
2023-05-12T18:43:37.723Z,100504.07
2023-05-12T18:46:05.537Z,100505.23
2023-05-12T18:48:33.433Z,100505.95
2023-05-12T18:51:00.696Z,100508.23
2023-05-12T18:53:29.748Z,100510.89
2023-05-12T18:55:56.660Z,100516.31
2023-05-12T18:58:23.322Z,100516.53
2023-05-12T19:00:50.199Z,100518.24
2023-05-12T19:03:16.981Z,100522.95
2023-05-12T19:05:45.636Z,100524.17
2023-05-12T19:08:13.008Z,100527.58
2023-05-12T19:10:40.347Z,100528.11
2023-05-12T19:13:08.106Z,100529.11
2023-05-12T19:15:35.649Z,100532.48
2023-05-12T19:18:02.955Z,100530.98
2023-05-12T19:20:30.549Z,100535.50
2023-05-12T19:22:59.071Z,100532.34
2023-05-12T19:25:25.963Z,100530.87
2023-05-12T19:27:53.391Z,100524.60
2023-05-12T19:30:20.609Z,100520.75
2023-05-12T19:32:47.480Z,100516.48
2023-05-12T19:35:16.040Z,100515.16
2023-05-12T19:37:43.191Z,100512.71
2023-05-12T19:40:10.176Z,100514.70
2023-05-12T19:42:38.045Z,100513.60
2023-05-12T19:45:05.699Z,100513.52
2023-05-12T19:47:33.694Z,100516.02
2023-05-12T19:50:00.486Z,100514.77
2023-05-12T19:52:29.994Z,100513.75
2023-05-12T19:54:56.693Z,100510.30
2023-05-12T19:57:23.320Z,100511.55
2023-05-12T19:59:50.270Z,100510.61
2023-05-12T20:02:17.104Z,100505.09
2023-05-12T20:04:43.950Z,100503.90
2023-05-12T20:07:10.621Z,100496.81
2023-05-12T20:09:37.299Z,100498.16
2023-05-12T20:12:07.618Z,100495.69
2023-05-12T20:14:35.584Z,100497.66
2023-05-12T20:17:05.088Z,100498.22
2023-05-12T20:19:32.787Z,100505.20
2023-05-12T20:21:59.742Z,100502.02
2023-05-12T20:24:26.674Z,100504.60
2023-05-12T20:26:53.274Z,100506.33
2023-05-12T20:29:22.667Z,100506.47
2023-05-12T20:31:50.214Z,100507.86
2023-05-12T20:34:17.337Z,100505.55
2023-05-12T20:36:44.185Z,100504.04
2023-05-12T20:39:11.344Z,100510.41
2023-05-12T20:41:38.405Z,100508.02
2023-05-12T20:44:05.433Z,100506.70
2023-05-12T20:46:34.447Z,100507.63
2023-05-12T20:49:02.725Z,100515.46
2023-05-12T20:51:29.331Z,100515.55
2023-05-12T20:53:55.992Z,100518.60
2023-05-12T20:56:22.634Z,100517.29
2023-05-12T20:58:49.684Z,100519.19
2023-05-12T21:01:16.612Z,100519.23
2023-05-12T21:03:43.241Z,100524.15
2023-05-12T21:06:11.504Z,100525.85
2023-05-12T21:08:38.776Z,100523.86
2023-05-12T21:11:18.087Z,100526.02
2023-05-12T21:13:46.375Z,100525.02
2023-05-12T21:16:14.418Z,100527.83
2023-05-12T21:18:42.288Z,100523.65
2023-05-12T21:21:09.026Z,100524.70
2023-05-12T21:23:36.853Z,100524.30
2023-05-12T21:26:04.382Z,100524.93
2023-05-12T21:28:31.106Z,100523.20
2023-05-12T21:30:57.684Z,100517.81
2023-05-12T21:33:24.383Z,100519.54
2023-05-12T21:35:51.043Z,100519.27
2023-05-12T21:38:18.804Z,100522.56
2023-05-12T21:40:51.207Z,100521.16
2023-05-12T21:43:17.785Z,100523.98
2023-05-12T21:45:44.340Z,100520.34
2023-05-12T21:48:11.826Z,100521.83
2023-05-12T21:50:38.570Z,100521.67
2023-05-12T21:53:05.205Z,100523.14
2023-05-12T21:55:32.630Z,100523.81
2023-05-12T21:57:59.412Z,100524.48
2023-05-12T22:00:26.288Z,100523.09
2023-05-12T22:02:53.008Z,100522.70
2023-05-12T22:05:19.666Z,100522.27
2023-05-12T22:07:46.371Z,100520.11
2023-05-12T22:10:13.105Z,100522.67
2023-05-12T22:12:40.251Z,100522.72
2023-05-12T22:15:07.268Z,100523.61
2023-05-12T22:17:34.103Z,100526.48
2023-05-12T22:20:00.888Z,100523.88
2023-05-12T22:22:27.430Z,100523.90
2023-05-12T22:24:54.043Z,100525.20
2023-05-12T22:27:21.793Z,100523.63
2023-05-12T22:29:49.055Z,100521.80
2023-05-12T22:32:15.681Z,100523.63
2023-05-12T22:34:42.241Z,100523.09
2023-05-12T22:37:08.955Z,100523.39
2023-05-12T22:39:35.660Z,100522.46
2023-05-12T22:42:02.676Z,100524.77
2023-05-12T22:44:30.262Z,100523.20
2023-05-12T22:46:57.264Z,100523.45
2023-05-12T22:49:23.982Z,100525.23
2023-05-12T22:51:50.674Z,100528.27
2023-05-12T22:54:17.586Z,100527.70
2023-05-12T22:56:44.231Z,100526.52
2023-05-12T22:59:10.851Z,100527.88
2023-05-12T23:01:37.456Z,100524.50
2023-05-12T23:04:04.320Z,100527.47
2023-05-12T23:06:31.947Z,100528.10
2023-05-12T23:08:58.577Z,100528.40
2023-05-12T23:11:25.204Z,100527.31
2023-05-12T23:13:52.014Z,100527.51
2023-05-12T23:16:18.789Z,100524.16
2023-05-12T23:18:45.569Z,100527.97
2023-05-12T23:21:12.224Z,100526.82
2023-05-12T23:23:38.795Z,100523.58
2023-05-12T23:26:05.404Z,100527.66
2023-05-12T23:28:32.726Z,100526.35
2023-05-12T23:30:59.345Z,100524.06
2023-05-12T23:33:26.499Z,100524.75
2023-05-12T23:35:53.086Z,100525.48
2023-05-12T23:39:41.009Z,100524.02
2023-05-12T23:42:07.854Z,100526.41
2023-05-12T23:44:34.564Z,100527.45
2023-05-12T23:47:01.451Z,100526.45
2023-05-12T23:49:28.252Z,100525.39
2023-05-12T23:51:55.070Z,100528.81
2023-05-12T23:54:21.904Z,100529.83
2023-05-12T23:56:48.632Z,100530.52
2023-05-12T23:59:15.451Z,100530.90
